Aden, Yemen
Current Conditions -  °F | °C
As of 4:00 AM on Monday 24 Nov 2014 (Local Time) from OYAA Reporting Station
Few Clouds Few Clouds  
Wind Chill: 23°   Ceiling: Unl
Heat Index: 23°   Visibility: 6mi
Dew Point: 17°   Wind: 6mph
Humidity: 69%   Direction: 50°NE
Pressure: 29.85"   Gusts: NA
Location:  12.79°N, 45.03°E
Report Text: OYAA 240100Z 05005KT 9999 FEW018 23/17 Q1011
Loading
Personal Weather Stations






























Interactive Weather Map New forecast layout! Learn more

10-Day Weather Forecast

Advertisements
Track Severe Weather on mobile